Participated 1 time
in 1952
Armand Papazian, France
Tour de France 2026 starts from Barcelona, Spain in

Stats and Facts from
Tour de France.

2026   2025   2024   2023  2022  2021  2020  2019   2018  2017   2016   2015  2014  2013   2012   2011  2010   2009   2008   2007   2006   2005   2004   2003   2002   2001   2000   1999   1998   1997  1996   1995   1994   1993   1992  1991   1990   1989   1988   1987   1986   1985   1984   1983  1982  1981   1980   1979  1978  1977   1976  1975  1974  1973   1972   1971   1970  1969   1968   1967   1966   1965  1964  1963   1962   1961   1960   1959   1958   1957  1956   1955   1954   1953   1952  1951  1950  1949   1948  1947  1939   1938   1937   1936   1935   1934   1933  1932   1931   1930  1929   1928   1927   1926  1925  1924  1923   1922   1921   1920   1919  1914   1913   1912   1911   1910  1909   1908   1907   1906  1905  1904   1903 

Tourstats
Sitemap

After stage 21 - 2025:
 16451 starters.
  5464 different riders.
  689 teams.
  2398 stages.
  470 restdays.
  466506.50 km.
  5925 abandoned riders.

Click map for 1907 route.
Facts from Tour de France 1907
  |   Stages.  |   Stage winners.  |   Days in jerseys.  |   Teams.  |   All riders.  |   All riders by age.  |   All riders from.  |  

  |   Rookies.  |   Withdrawls.  |   Average speed.  |   GC.  |   Polka  |   Green  |   White  |   Summits. (In tour)  |   Miscellaneous.  |  

Stage 4 on July 15th. 1907
Pick a stage:  1  2  3  4  5  6  7  8  9  10  11  12  13  14  

After stage 4:    Emile Georget  
  BelfortLyon | Dist: 309.00km. | Winner: Marcel Cadolle

Podium

Average speed for all riders in stage:  25,366 km./hr.

1
 Marcel Cadolle  Individual09h 27' 02"=32,696  km/h

2
 Emile Georget  Individual09h 27' 03"+  00:00:01 =32,696  km/h

3
 Luigi Ganna  Individual09h 27' 03"+  00:00:01 =32,696  km/h

4  François Beaugendre  Individual09h 27' 03"+  00:00:01 =32,696  km/h

5  Louis Trousselier  Individual09h 30' 34"+  00:03:32 =32,494  km/h

6  François Faber  Individual09h 44' 18"+  00:17:16 =31,730  km/h

7  Carlo Galetti  Individual09h 48' 45"+  00:21:43 =31,490  km/h

8  Gustave Garrigou  Individual09h 49' 00"+  00:21:58 =31,477  km/h

9  Lucien Petit-Breton  Individual09h 49' 00"+  00:21:58 =31,477  km/h

10  Marcel Godivier  Individual10h 05' 08"+  00:38:06 =30,638  km/h

11  Henri Lignon  Individual10h 05' 56"+  00:38:54 =30,597  km/h

12  Georges Passerieu  Individual10h 05' 56"+  00:38:54 =30,597  km/h

13  Léon Georget  Individual10h 06' 57"+  00:39:55 =30,546  km/h

14  Ernest Ricaux  Individual10h 07' 04"+  00:40:02 =30,540  km/h

15  Clément Anselme Mazan  Individual10h 08' 08"+  00:41:06 =30,487  km/h

16  Georges Landrieu  Individual10h 08' 09"+  00:41:07 =30,486  km/h

17  Fernand Vercher  Individual10h 25' 24"+  00:58:22 =29,645  km/h

18  Christophe Laurent  Individual10h 27' 04"+  01:00:02 =29,566  km/h

19  Cyrille Van Hauwaert  Individual10h 27' 10"+  01:00:08 =29,562  km/h

20  Eberardo Pavesi  Individual10h 47' 02"+  01:20:00 =28,654  km/h

21  Auguste Dufour  Individual10h 47' 26"+  01:20:24 =28,636  km/h

22  Jean-Baptiste Roux  Individual10h 52' 45"+  01:25:43 =28,403  km/h

23  Julien Gabory  Individual10h 54' 15"+  01:27:13 =28,338  km/h

24  Marcel Lecuyer  Individual10h 54' 25"+  01:27:23 =28,331  km/h

25  François  Lafourcade  Individual10h 54' 25"+  01:27:23 =28,331  km/h

26  Alfred Quenon  Individual10h 54' 27"+  01:27:25 =28,329  km/h

27  Alzire Vivier  Individual10h 55' 15"+  01:28:13 =28,295  km/h

28  Pierre Privat  Individual10h 59' 19"+  01:32:17 =28,120  km/h

29  Constant Menager  Individual10h 59' 19"+  01:32:17 =28,120  km/h

30  Gaston Tuvache  Individual11h 01' 25"+  01:34:23 =28,031  km/h

31  Alois Catteau  Individual11h 02' 12"+  01:35:10 =27,998  km/h

32  Honore Genin  Individual11h 04' 22"+  01:37:20 =27,906  km/h

33  Martin Soulie  Individual11h 11' 25"+  01:44:23 =27,613  km/h

34  David Dupont  Individual11h 13' 55"+  01:46:53 =27,511  km/h

35  Augustin Ringeval  Individual11h 29' 25"+  02:02:23 =26,892  km/h

36  Julien Maîtron  Individual11h 29' 25"+  02:02:23 =26,892  km/h

37  Philippe Pautrat  Individual11h 29' 26"+  02:02:24 =26,892  km/h

38  Marius Julien Villette  Individual11h 32' 47"+  02:05:45 =26,762  km/h

39  Georges Fleury  Individual11h 32' 47"+  02:05:45 =26,762  km/h

40  Ferdinand Payan  Individual11h 32' 47"+  02:05:45 =26,762  km/h

41  Henri Star  Individual11h 32' 48"+  02:05:46 =26,761  km/h

42  Eugène Delaye  Individual11h 47' 34"+  02:20:32 =26,202  km/h

43  Albert Baudet  Individual11h 49' 04"+  02:22:02 =26,147  km/h

44  Léon Riche  Individual11h 50' 03"+  02:23:01 =26,111  km/h

45  Georges Bronchard  Individual11h 52' 10"+  02:25:08 =26,033  km/h

46  Octave Noel  Individual11h 52' 20"+  02:25:18 =26,027  km/h

47  Armand Roume  Individual12h 00' 15"+  02:33:13 =25,741  km/h

48  Henri Timmermann  Individual12h 01' 24"+  02:34:22 =25,700  km/h

49  Joseph Rouaix  Individual12h 08' 51"+  02:41:49 =25,437  km/h

50  Edouard Wattelier  Individual12h 11' 16"+  02:44:14 =25,353  km/h

51  Rene Fleury  Individual12h 28' 12"+  03:01:10 =24,779  km/h

52  Léon Aumonier  Individual12h 34' 15"+  03:07:13 =24,581  km/h

53  Joseph Ponthieu  Individual12h 41' 54"+  03:14:52 =24,334  km/h

54  Henri Lorillon  Individual12h 42' 10"+  03:15:08 =24,325  km/h

55  Albert Geraud  Individual13h 25' 08"+  03:58:06 =23,027  km/h

56  Marceau Narcy  Individual13h 49' 12"+  04:22:10 =22,359  km/h

57  Alfred Le Bars  Individual13h 56' 00"+  04:28:58 =22,177  km/h

58  Jacques Mendes  Individual13h 58' 45"+  04:31:43 =22,104  km/h

59  François Poiry  Individual14h 00' 00"+  04:32:58 =22,071  km/h

60  Eloi Guichard  Individual14h 03' 00"+  04:35:58 =21,993  km/h

61  Jules Chabas  Individual14h 03' 00"+  04:35:58 =21,993  km/h

62  Louis Gardent  Individual14h 03' 00"+  04:35:58 =21,993  km/h

63  Marcel Dozol  Individual15h 39' 00"+  06:11:58 =19,744  km/h

64  Albert Chartier  Individual15h 56' 00"+  06:28:58 =19,393  km/h

65  Fernand Lallement  Individual16h 21' 00"+  06:53:58 =18,899  km/h

66  Henri Anthoine  Individual16h 21' 01"+  06:53:59 =18,899  km/h

67  Andre Sevestre  Individual16h 23' 00"+  06:55:58 =18,861  km/h

68  Jean Gauban  Individual16h 26' 00"+  06:58:58 =18,803  km/h

69  Jean Dargassies  Individual16h 31' 00"+  07:03:58 =18,708  km/h

70  Henri Pépin  Individual16h 31' 00"+  07:03:58 =18,708  km/h

71  Pierre Desvages  Individual17h 06' 00"+  07:38:58 =18,070  km/h

72  Georges Devilly  Individual19h 25' 00"+  09:57:58 =15,914  km/h

73  Jean-Marie Techenne  Individual19h 30' 00"+  10:02:58 =15,846  km/h


Withdrawls: 4
 RiderTeamReason
3   Lucien Pothier IndividualDid not finish
27   Gabriel Mathonat IndividualDid not finish
72   Henri Cornet IndividualDid not finish
81   Charles Jeanperin IndividualDid not finish
Todays birthdays.

1884 • Vincenzo Borgarello
1889 • Emile Bonnefoi
1889 • Auguste Denizot
1890 • Maurice Petit
1904 • Pierino Ferioli
1905 • Vincent Carrara
1910 • Antoon Van Schendel
1925 • Georges Meunier
1945 • Gérard Besnard
1950 • Wim Kelleners
1960 • Ivan Ivanov
1960 • Pierre-Henri Menthéour
1962 • Giovanni Bottoia
1964 • Flavio Giupponi
1974 • Benoit Salmon
1977 • Iñigo Landaluze
1977 • Svein Tuft
1979 • Rubens Bertogliati
1985 • Matthew Busche

 

Optimized for Chrome - Edge
and Opera browsers.